createdAt,value
2022-11-17T00:02:30.576Z,14.00
2022-11-17T00:10:38.790Z,13.90
2022-11-17T00:18:56.484Z,13.90
2022-11-17T00:27:26.062Z,13.80
2022-11-17T00:35:32.547Z,13.80
2022-11-17T00:43:43.303Z,13.80
2022-11-17T01:00:21.387Z,14.30
2022-11-17T01:08:34.993Z,14.30
2022-11-17T01:16:48.726Z,14.30
2022-11-17T01:24:54.045Z,14.30
2022-11-17T01:33:02.042Z,14.20
2022-11-17T01:41:10.423Z,13.80
2022-11-17T01:49:24.308Z,13.80
2022-11-17T01:57:34.112Z,13.50
2022-11-17T02:05:51.377Z,13.40
2022-11-17T02:13:58.771Z,13.30
2022-11-17T02:22:36.545Z,13.00
2022-11-17T02:30:52.160Z,12.90
2022-11-17T02:39:03.666Z,13.20
2022-11-17T02:47:18.595Z,13.30
2022-11-17T02:55:24.074Z,13.50
2022-11-17T03:03:47.782Z,13.60
2022-11-17T03:11:56.663Z,13.60
2022-11-17T03:20:11.766Z,13.80
2022-11-17T03:28:20.571Z,13.90
2022-11-17T03:36:33.982Z,14.00
2022-11-17T03:44:42.319Z,14.10
2022-11-17T03:52:51.774Z,14.20
2022-11-17T04:00:59.296Z,14.00
2022-11-17T04:09:07.395Z,14.00
2022-11-17T04:17:12.837Z,13.90
2022-11-17T04:25:40.848Z,13.90
2022-11-17T04:33:48.081Z,14.00
2022-11-17T04:42:03.447Z,14.10
2022-11-17T04:50:10.366Z,14.30
2022-11-17T04:58:18.345Z,14.50
2022-11-17T05:06:25.998Z,14.60
2022-11-17T05:14:34.402Z,14.60
2022-11-17T05:22:52.154Z,14.50
2022-11-17T05:31:00.191Z,14.40
2022-11-17T05:39:06.453Z,14.40
2022-11-17T05:47:14.604Z,14.60
2022-11-17T05:55:19.925Z,14.70
2022-11-17T06:03:32.249Z,14.20
2022-11-17T06:11:37.803Z,14.30
2022-11-17T06:19:49.409Z,14.40
2022-11-17T06:27:56.678Z,14.00
2022-11-17T06:36:07.299Z,13.70
2022-11-17T06:44:12.665Z,13.60
2022-11-17T06:52:20.646Z,13.70
2022-11-17T07:00:26.262Z,13.70
2022-11-17T07:08:35.202Z,13.50
2022-11-17T07:16:41.103Z,13.60
2022-11-17T07:24:49.626Z,14.10
2022-11-17T07:32:55.179Z,14.00
2022-11-17T07:41:03.970Z,14.50
2022-11-17T07:49:09.413Z,14.70
2022-11-17T07:57:17.750Z,14.70
2022-11-17T08:05:24.588Z,14.80
2022-11-17T08:13:32.569Z,14.70
2022-11-17T08:21:41.319Z,15.00
2022-11-17T08:29:49.404Z,15.20
2022-11-17T08:37:55.272Z,15.50
2022-11-17T08:46:03.463Z,15.80
2022-11-17T08:54:09.086Z,16.00
2022-11-17T09:02:18.205Z,15.90
2022-11-17T09:10:23.634Z,16.10
2022-11-17T09:18:31.689Z,16.20
2022-11-17T09:26:40.955Z,16.30
2022-11-17T09:34:49.162Z,16.20
2022-11-17T09:42:54.709Z,16.00
2022-11-17T09:51:05.348Z,16.10
2022-11-17T09:59:13.954Z,15.90
2022-11-17T10:07:22.393Z,16.00
2022-11-17T10:15:32.645Z,16.20
2022-11-17T10:23:47.416Z,16.70
2022-11-17T10:31:53.267Z,16.90
2022-11-17T10:40:24.792Z,16.60
2022-11-17T10:48:33.115Z,16.20
2022-11-17T10:56:44.794Z,15.90
2022-11-17T11:04:50.903Z,15.90
2022-11-17T11:13:07.318Z,15.90
2022-11-17T11:21:17.506Z,16.30
2022-11-17T11:29:35.747Z,16.60
2022-11-17T11:37:47.218Z,16.20
2022-11-17T11:46:05.764Z,16.30
2022-11-17T11:54:16.903Z,15.80
2022-11-17T12:02:32.117Z,15.70
2022-11-17T12:10:43.631Z,16.10
2022-11-17T12:18:51.654Z,16.40
2022-11-17T12:27:42.094Z,16.40
2022-11-17T12:36:10.189Z,16.40
2022-11-17T12:44:46.470Z,17.20
2022-11-17T12:53:08.234Z,17.40
2022-11-17T13:01:20.025Z,17.20
2022-11-17T13:09:30.714Z,16.90
2022-11-17T13:17:41.963Z,16.70
2022-11-17T13:25:50.232Z,16.70
2022-11-17T13:34:02.721Z,16.70
2022-11-17T13:42:11.069Z,16.70
2022-11-17T13:50:40.586Z,16.80
2022-11-17T13:58:52.007Z,16.60
2022-11-17T14:07:00.612Z,16.10
2022-11-17T14:15:17.050Z,15.60
2022-11-17T14:23:22.558Z,15.10
2022-11-17T14:31:30.604Z,15.30
2022-11-17T14:39:35.978Z,15.70
2022-11-17T14:47:44.230Z,15.80
2022-11-17T14:55:49.662Z,15.70
2022-11-17T15:03:58.734Z,15.40
2022-11-17T15:12:04.318Z,15.40
2022-11-17T15:20:13.779Z,15.30
2022-11-17T15:28:23.027Z,15.40
2022-11-17T15:36:32.033Z,15.20
2022-11-17T15:44:37.474Z,15.20
2022-11-17T16:01:16.034Z,15.10
2022-11-17T16:09:24.185Z,15.00
2022-11-17T16:17:29.634Z,14.90
2022-11-17T16:25:43.019Z,14.80
2022-11-17T16:33:52.533Z,14.40
2022-11-17T16:42:01.758Z,14.40
2022-11-17T16:50:08.168Z,14.30
2022-11-17T16:58:16.313Z,14.30
2022-11-17T17:06:21.763Z,14.30
2022-11-17T17:14:29.831Z,14.30
2022-11-17T17:22:35.331Z,14.20
2022-11-17T17:30:43.444Z,14.10
2022-11-17T17:38:55.041Z,14.40
2022-11-17T17:47:03.675Z,14.50
2022-11-17T17:55:10.771Z,14.40
2022-11-17T18:03:20.549Z,14.50
2022-11-17T18:11:26.746Z,14.50
2022-11-17T18:19:34.923Z,14.50
2022-11-17T18:27:40.279Z,14.50
2022-11-17T18:35:49.052Z,14.50
2022-11-17T18:43:55.273Z,14.30
2022-11-17T18:52:03.474Z,14.20
2022-11-17T19:00:10.784Z,14.20
2022-11-17T19:08:18.942Z,14.10
2022-11-17T19:16:26.097Z,14.10
2022-11-17T19:24:39.008Z,14.00
2022-11-17T19:32:45.558Z,14.00
2022-11-17T19:40:53.574Z,14.10
2022-11-17T19:48:59.753Z,14.00
2022-11-17T19:57:08.133Z,14.00
2022-11-17T20:05:13.577Z,14.00
2022-11-17T20:13:21.581Z,13.90
2022-11-17T20:21:27.625Z,13.60
2022-11-17T20:29:35.638Z,13.40
2022-11-17T20:37:41.926Z,13.40
2022-11-17T20:45:52.909Z,13.30
2022-11-17T20:53:58.425Z,13.30
2022-11-17T21:02:06.622Z,13.00
2022-11-17T21:10:12.666Z,12.90
2022-11-17T21:18:26.560Z,12.80
2022-11-17T21:26:32.116Z,12.60
2022-11-17T21:34:40.111Z,12.60
2022-11-17T21:42:45.447Z,12.50
2022-11-17T21:50:53.557Z,12.50
2022-11-17T21:58:59.053Z,12.30
2022-11-17T22:07:07.346Z,11.50
2022-11-17T22:15:13.116Z,11.30
2022-11-17T22:23:21.555Z,11.60
2022-11-17T22:31:27.351Z,11.70
2022-11-17T22:39:38.941Z,11.20
2022-11-17T22:47:44.428Z,11.30
2022-11-17T22:55:52.816Z,11.20
2022-11-17T23:03:58.321Z,11.40
2022-11-17T23:12:06.539Z,11.70
2022-11-17T23:20:13.879Z,11.60
2022-11-17T23:28:21.950Z,11.70
2022-11-17T23:36:27.784Z,11.90
2022-11-17T23:44:36.198Z,12.00
2022-11-17T23:52:41.569Z,12.00
